Main page
METAR-TAF:

METAR-TAF

Airports :

Altenstadt, Germany

Altenstadt Air Base

latitude: 47-50N, longitude: 010-52E, elevation: 739 m

Current weather observation

The report was made 1 hour and 13 minutes ago, at 21:20 UTC
Wind 4 kt from the West
Temperature 15°C
Humidity 72%
Pressure 1022 hPa

METAR: ETHA 232120Z AUTO 26004KT //// // ////// 15/10 Q1022 ///

Time: 00:33 (22:33 UTC)

Forecast

The report was made 7 hours and 12 minutes ago, at 15:21 UTC
Forecast valid from 23 at 14 UTC to 23 at 23 UTC
Wind 15 kt from the West with gusts up to 25 kt
Visibility 10 km or more
Scattered clouds at a height of 6000 ft
Broken clouds at a height of 25000 ft
Probability 30%
from 23 at 18 UTC to 23 at 21 UTC
Wind 20 kt from the Northwest with gusts up to 30 kt
Visibility: 1620 m
Scattered clouds at a height of 2000 ft
Broken clouds at a height of 3000 ft, Cumulonimbus.
thunderstorm, rain

TAF: ETHA 231521Z 2314/2323 28015G25KT 9999 NSW SCT060 BKN250 PROB30 2318/2321 32020G30KT 4000 TSRA SCT020 BKN030CB CANCEL 1620

Weather observations and forecasts of more than 4000 airports (METAR and TAF reports).

The available stations are represented by yellow and red dots on the map.

Hover mouse over dot to see the name of the station.

Then click to see weather observations and forecasts.

To change the map : click on the green buttons with a black cross to zoom in, on the green button with a dash to zoom out, or on the green arrows for adjacent maps.


METAR-TAF: